This is the latest recevied weather packets stored in our database for station/object KO6SRA-13. If no packets are shown the sender has not sent any weather packets the latest 10 day(s).
| Time | Temp. | Humidity | Pressure | Rain* | Wind** | Luminosity | Snow |
|---|---|---|---|---|---|---|---|
| 1787688544 | 21.67° C | 66% | 1018.1 hPa | 0 mm | - | 737 W/m² | - |
| 1787688244 | 22.22° C | 66% | 1018.2 hPa | 0 mm | - | 740 W/m² | - |
| 1787687939 | 22.22° C | 63% | 1018 hPa | 0 mm | - | 737 W/m² | - |
| 1787687634 | 22.22° C | 65% | 1018.3 hPa | 0 mm | - | 739 W/m² | - |
| 1787687330 | 21.67° C | 67% | 1018 hPa | 0 mm | - | 741 W/m² | - |
| 1787687025 | 22.22° C | 64% | 1018.3 hPa | 0 mm | - | 753 W/m² | - |
| 1787686722 | 21.67° C | 67% | 1018.2 hPa | 0 mm | - | 769 W/m² | - |
| 1787686416 | 20.56° C | 70% | 1018.3 hPa | 0 mm | - | 745 W/m² | - |
| 1787686112 | 21.11° C | 69% | 1018.4 hPa | 0 mm | - | 705 W/m² | - |
| 1787685808 | 21.11° C | 68% | 1018.5 hPa | 0 mm | - | 657 W/m² | - |
| 1787685508 | 21.67° C | 68% | 1018.2 hPa | 0 mm | - | 707 W/m² | - |
| 1787685207 | 21.11° C | 70% | 1018.3 hPa | 0 mm | - | 739 W/m² | - |
| 1787684903 | 21.11° C | 70% | 1018.4 hPa | 0 mm | - | 749 W/m² | - |
| 1787684599 | 21.67° C | 68% | 1018.2 hPa | 0 mm | - | 783 W/m² | - |
| 1787684298 | 22.22° C | 65% | 1018.6 hPa | 0 mm | - | 732 W/m² | - |
| 1787683994 | 22.78° C | 64% | 1018.6 hPa | 0 mm | - | 638 W/m² | - |
| 1787683693 | 23.33° C | 64% | 1018.5 hPa | 0 mm | - | 679 W/m² | - |
| 1787683389 | 23.89° C | 60% | 1018.5 hPa | 0 mm | - | 683 W/m² | - |
| 1787683085 | 23.89° C | 61% | 1018.4 hPa | 0 mm | - | 682 W/m² | - |
| 1787682781 | 23.89° C | 61% | 1018.4 hPa | 0 mm | - | 760 W/m² | - |
| 1787682477 | 23.89° C | 61% | 1018.3 hPa | 0 mm | - | 763 W/m² | - |
| 1787682173 | 23.33° C | 62% | 1018.4 hPa | 0 mm | - | 754 W/m² | - |
| 1787681868 | 23.89° C | 63% | 1018.6 hPa | 0 mm | - | 733 W/m² | - |
| 1787681567 | 23.33° C | 65% | 1018.4 hPa | 0 mm | - | 695 W/m² | - |
| 1787681263 | 23.33° C | 64% | 1018.6 hPa | 0 mm | - | 754 W/m² | - |
* Rain latest hour (hover to see other rain measurements)
** Current wind speed in m/s (hover to see current wind gust speed)